Caswell, Maine
Current Conditions -  °F | °C
As of 6:54 AM on Monday 24 Nov 2014 (Local Time) from KCAR Reporting Station
Clear Clear  
Wind Chill: 31°   Ceiling: Unl
Heat Index: 38°   Visibility: 10mi
Dew Point: 34°   Wind: 10mph
Humidity: 86%   Direction: 140°SE
Pressure: 29.98"   Gusts: NA
Location:  46.9626°N, 67.8576°W
Report Text: KCAR 241154Z AUTO 14009KT 10SM CLR 03/01 A2998 RMK AO2 SLP160 T00330011 10033 20022 58017
Loading
Personal Weather Stations






























Interactive Weather Map New forecast layout! Learn more

10-Day Weather Forecast

Advertisements
Track Severe Weather on mobile